Time;durP1;ratioP1;P1;durP2;ratioP2;P2;SDS_P1;SDS_P2;PMS_P1;PMS_P2;Temp;Humidity;BMP_temperature;BMP_pressure;BME280_temperature;BME280_humidity;BME280_pressure;Samples;Min_cycle;Max_cycle;Signal;HPM_P1;HPM_P2
2023/09/22 09:13:24;;;;;;;4.25;0.98;;;;;;;14.31;93.69;95582.25;2082839;28;20559;-61
2023/09/22 09:15:49;;;;;;;3.25;1.20;;;;;;;14.31;92.27;95580.47;2101277;27;20605;-61
2023/09/22 09:16:50;;;;;;;3.78;1.00;;;;;;;14.42;92.97;95584.88;2086299;28;20247;-61
2023/09/22 09:18:03;;;;;;;7.18;1.23;;;;;;;14.61;92.59;95580.84;2087230;28;20250;-61
2023/09/22 09:19:17;;;;;;;3.85;1.23;;;;;;;14.69;92.16;95575.88;2086630;28;20201;-61
2023/09/22 09:20:18;;;;;;;2.42;1.10;;;;;;;14.90;91.31;95581.22;2086597;28;20557;-61
2023/09/22 09:21:20;;;;;;;4.32;1.27;;;;;;;15.00;90.35;95576.91;2086520;28;20328;-61
2023/09/22 09:22:32;;;;;;;1.70;0.80;;;;;;;14.98;89.16;95580.59;2087457;28;20223;-60
2023/09/22 09:23:33;;;;;;;1.70;1.00;;;;;;;14.95;89.58;95579.06;2087290;28;20208;-61
2023/09/22 09:24:35;;;;;;;1.75;0.95;;;;;;;15.17;89.64;95582.59;2087254;28;20192;-61
2023/09/22 09:25:42;;;;;;;1.95;0.93;;;;;;;15.28;88.78;95582.56;2087354;28;20184;-61
2023/09/22 09:53:58;;;;;;;3.17;0.80;;;;;;;14.71;93.39;95602.84;2091378;27;20562;-61
2023/09/22 09:55:14;;;;;;;3.05;0.90;;;;;;;14.83;91.15;95601.03;2086817;28;20199;-61
2023/09/22 09:56:17;;;;;;;1.70;0.80;;;;;;;14.95;89.76;95586.13;2081850;28;20216;-61
2023/09/22 09:57:20;;;;;;;2.60;1.10;;;;;;;15.02;88.55;95592.56;2074917;28;20262;-61
2023/09/22 09:58:23;;;;;;;4.32;0.85;;;;;;;14.97;87.09;95598.19;2073544;28;20205;-61
2023/09/22 09:59:25;;;;;;;2.45;0.98;;;;;;;14.97;87.00;95595.56;2072632;28;20540;-61
2023/09/22 10:00:26;;;;;;;2.55;1.10;;;;;;;15.08;85.89;95593.88;2072142;28;20198;-62
2023/09/22 10:01:32;;;;;;;1.60;0.90;;;;;;;15.26;85.75;95602.06;2079546;28;20281;-61
2023/09/22 10:02:34;;;;;;;2.25;0.82;;;;;;;15.52;85.62;95600.81;2081544;28;20193;-61
2023/09/22 10:03:42;;;;;;;2.40;0.95;;;;;;;15.55;84.39;95604.97;2082070;28;20200;-61
2023/09/22 10:04:45;;;;;;;4.63;1.00;;;;;;;15.73;83.26;95602.66;2080127;28;21064;-61
2023/09/22 10:05:50;;;;;;;2.03;0.70;;;;;;;16.17;82.18;95586.78;2078242;28;20229;-63
2023/09/22 10:06:52;;;;;;;2.00;0.90;;;;;;;16.49;79.87;95591.97;2081712;28;20242;-62
2023/09/22 10:07:56;;;;;;;5.00;1.40;;;;;;;16.41;79.48;95588.31;2077063;28;20287;-61
2023/09/22 10:08:58;;;;;;;6.07;2.20;;;;;;;16.71;80.58;95578.75;2083673;28;20287;-61
2023/09/22 10:10:01;;;;;;;4.47;0.90;;;;;;;18.02;75.57;95577.78;2073606;28;20284;-62
2023/09/22 10:11:05;;;;;;;6.55;1.00;;;;;;;18.98;72.55;95571.56;2078395;28;20188;-61
2023/09/22 10:12:07;;;;;;;2.08;0.70;;;;;;;19.53;68.49;95572.50;2083315;28;20275;-62
2023/09/22 10:13:09;;;;;;;2.10;0.80;;;;;;;19.39;68.44;95579.94;2079385;28;20707;-61
2023/09/22 10:14:43;;;;;;;1.60;0.70;;;;;;;19.96;66.77;95565.63;2079414;28;20213;-61
2023/09/22 10:15:54;;;;;;;2.00;0.88;;;;;;;19.73;66.25;95562.56;2078470;28;20212;-62
2023/09/22 10:16:55;;;;;;;2.05;0.70;;;;;;;20.04;65.75;95568.31;2076967;28;20225;-62
2023/09/22 10:17:57;;;;;;;1.73;0.80;;;;;;;19.94;64.66;95558.81;2076939;28;20198;-62
2023/09/22 10:18:59;;;;;;;2.42;0.90;;;;;;;19.83;65.75;95557.22;2078922;28;20531;-61
2023/09/22 10:20:10;;;;;;;2.38;0.90;;;;;;;20.35;64.97;95553.78;2094367;28;20194;-62
2023/09/22 10:21:30;;;;;;;2.90;0.82;;;;;;;20.04;63.49;95549.78;2094455;28;20238;-63
2023/09/22 10:22:33;;;;;;;3.30;0.80;;;;;;;20.40;64.25;95554.16;2080562;28;20216;-62
2023/09/22 10:23:35;;;;;;;3.67;0.90;;;;;;;20.84;63.19;95554.09;2081723;28;20279;-62
2023/09/22 10:24:38;;;;;;;2.55;0.80;;;;;;;20.27;64.08;95554.56;2081717;28;20208;-62
2023/09/22 10:25:39;;;;;;;2.25;0.80;;;;;;;20.20;64.15;95557.03;2077793;28;20194;-62
2023/09/22 10:26:54;;;;;;;2.08;0.80;;;;;;;20.14;63.17;95551.53;2074723;28;20311;-62
2023/09/22 10:28:00;;;;;;;2.70;0.80;;;;;;;20.02;63.66;95549.13;2075539;28;20197;-63
2023/09/22 10:29:33;;;;;;;2.50;0.77;;;;;;;20.78;61.86;95544.13;2080232;28;20209;-62
2023/09/22 10:31:02;;;;;;;2.63;0.90;;;;;;;19.74;63.07;95545.69;2080550;28;20193;-62
2023/09/22 10:32:19;;;;;;;3.38;0.80;;;;;;;18.82;67.15;95550.16;2080423;28;20232;-62
2023/09/22 10:33:26;;;;;;;3.00;0.80;;;;;;;18.13;68.41;95566.19;2082280;28;20200;-62
2023/09/22 10:34:55;;;;;;;3.55;0.80;;;;;;;17.50;70.63;95556.91;2084109;28;20659;-62
2023/09/22 10:36:00;;;;;;;3.15;0.90;;;;;;;18.81;67.46;95569.66;2077255;28;20189;-62
2023/09/22 10:37:06;;;;;;;2.92;0.95;;;;;;;18.96;67.25;95565.56;2078596;28;20646;-64
2023/09/22 10:38:12;;;;;;;1.77;0.73;;;;;;;19.36;66.96;95571.47;2079581;28;20197;-64
2023/09/22 10:39:14;;;;;;;2.33;0.80;;;;;;;20.64;64.16;95564.06;2081798;28;20200;-64
2023/09/22 10:40:16;;;;;;;1.50;0.70;;;;;;;20.95;62.03;95568.06;2081079;28;20207;-65
2023/09/22 10:41:18;;;;;;;1.30;0.75;;;;;;;20.51;61.37;95569.00;2081586;28;20228;-65
2023/09/22 10:42:22;;;;;;;1.65;0.80;;;;;;;20.15;63.20;95563.75;2078753;28;20648;-64
2023/09/22 10:43:24;;;;;;;4.00;0.98;;;;;;;19.77;63.64;95563.09;2081712;28;20197;-65
2023/09/22 10:44:25;;;;;;;2.13;0.80;;;;;;;19.07;64.75;95570.66;2081903;28;20533;-65
2023/09/22 10:45:29;;;;;;;2.70;1.08;;;;;;;19.09;65.99;95562.56;2079552;28;20197;-65
2023/09/22 10:46:30;;;;;;;1.50;0.80;;;;;;;18.92;65.49;95557.09;2078114;28;20248;-65
2023/09/22 10:47:40;;;;;;;3.05;0.80;;;;;;;18.65;65.89;95563.19;2081563;28;20243;-65
2023/09/22 10:48:42;;;;;;;1.63;0.75;;;;;;;18.19;66.58;95570.09;2081075;28;20751;-64
2023/09/22 10:49:43;;;;;;;2.58;0.90;;;;;;;18.14;67.28;95586.38;2075424;28;20610;-64
2023/09/22 10:50:52;;;;;;;2.33;0.80;;;;;;;18.34;65.67;95576.59;2077832;28;20280;-64
2023/09/22 10:51:54;;;;;;;2.22;0.85;;;;;;;18.43;66.45;95572.28;2078989;28;20316;-64
2023/09/22 10:53:04;;;;;;;1.45;0.70;;;;;;;18.39;67.01;95570.91;2081409;28;20265;-65
2023/09/22 10:54:06;;;;;;;2.80;1.00;;;;;;;18.53;65.74;95567.78;2080122;28;20201;-65
2023/09/22 10:55:09;;;;;;;3.25;1.10;;;;;;;19.28;64.81;95576.69;2079975;28;20240;-65
2023/09/22 10:56:10;;;;;;;4.45;1.00;;;;;;;19.90;63.02;95577.66;2082471;28;20236;-64
2023/09/22 10:57:27;;;;;;;2.47;0.75;;;;;;;20.50;61.50;95572.63;2083217;28;20283;-64
2023/09/22 10:58:28;;;;;;;2.00;0.80;;;;;;;20.36;60.81;95572.19;2078978;28;20197;-65
2023/09/22 10:59:33;;;;;;;3.22;0.98;;;;;;;20.06;60.95;95565.50;2079290;28;20206;-64
2023/09/22 11:00:40;;;;;;;4.30;1.65;;;;;;;19.80;63.11;95568.09;2079921;28;20200;-64
2023/09/22 11:01:44;;;;;;;5.70;1.70;;;;;;;19.62;62.91;95563.63;2079278;28;20240;-64
2023/09/22 11:02:45;;;;;;;1.58;0.73;;;;;;;19.90;62.36;95556.44;2083134;28;20207;-64
2023/09/22 11:03:53;;;;;;;5.03;0.90;;;;;;;20.55;61.62;95562.38;2083580;28;20220;-66
2023/09/22 11:04:55;;;;;;;3.65;0.88;;;;;;;19.86;62.59;95556.94;2077093;28;20221;-66
2023/09/22 11:06:03;;;;;;;1.90;0.77;;;;;;;19.94;61.91;95554.34;2075177;28;20193;-67
2023/09/22 11:07:04;;;;;;;4.05;0.95;;;;;;;19.50;63.72;95551.59;2076864;28;20194;-66
2023/09/22 11:08:16;;;;;;;2.60;1.08;;;;;;;18.64;65.28;95548.28;2074067;28;20250;-66
2023/09/22 11:09:18;;;;;;;3.75;0.90;;;;;;;18.52;65.15;95544.16;2075046;28;20654;-66
2023/09/22 11:10:21;;;;;;;2.03;0.82;;;;;;;19.42;63.05;95547.88;2073540;28;20194;-66
2023/09/22 11:11:22;;;;;;;1.70;0.80;;;;;;;20.13;59.50;95552.50;2075032;28;20315;-66
2023/09/22 11:12:25;;;;;;;2.10;0.80;;;;;;;19.52;61.28;95558.41;2074851;28;20714;-66
2023/09/22 11:13:27;;;;;;;10.68;1.00;;;;;;;19.58;61.52;95546.38;2076187;28;20516;-67
2023/09/22 11:14:29;;;;;;;3.53;1.05;;;;;;;20.30;60.41;95551.63;2075622;28;20216;-66
2023/09/22 11:15:31;;;;;;;2.28;0.90;;;;;;;19.98;60.66;95560.16;2075725;28;20201;-66
2023/09/22 11:16:32;;;;;;;1.88;0.70;;;;;;;20.53;60.22;95559.88;2071387;28;20599;-66
2023/09/22 11:17:38;;;;;;;5.90;1.10;;;;;;;20.32;61.16;95565.53;2073125;28;20190;-66
2023/09/22 11:18:40;;;;;;;3.30;1.20;;;;;;;19.66;61.77;95561.50;2072730;28;20190;-66
2023/09/22 11:19:58;;;;;;;2.10;0.80;;;;;;;20.07;60.94;95559.22;2072098;28;20202;-66
2023/09/22 11:21:10;;;;;;;1.63;0.80;;;;;;;20.15;59.61;95561.97;2073292;28;20207;-66
2023/09/22 11:22:12;;;;;;;3.10;0.90;;;;;;;20.67;57.47;95560.28;2073399;28;20284;-66
2023/09/22 11:23:14;;;;;;;3.78;1.00;;;;;;;20.38;58.05;95572.88;2075211;28;20212;-67
2023/09/22 11:24:16;;;;;;;2.13;0.80;;;;;;;20.49;58.49;95571.81;2076463;28;20198;-66
2023/09/22 11:25:18;;;;;;;3.20;0.80;;;;;;;21.16;57.02;95572.97;2074967;28;20229;-66
2023/09/22 11:26:19;;;;;;;3.83;0.90;;;;;;;21.26;56.71;95571.00;2073334;28;20253;-66
2023/09/22 11:27:21;;;;;;;4.25;0.93;;;;;;;21.20;57.63;95567.19;2076033;28;20210;-66
2023/09/22 11:28:23;;;;;;;2.47;0.85;;;;;;;21.21;55.44;95576.78;2074683;28;20201;-66
2023/09/22 11:29:28;;;;;;;1.60;0.70;;;;;;;21.27;56.34;95558.56;2073840;28;20197;-66
2023/09/22 11:30:29;;;;;;;3.92;0.85;;;;;;;21.39;56.66;95556.44;2078410;28;20205;-66
2023/09/22 11:31:32;;;;;;;4.18;1.10;;;;;;;21.02;56.23;95559.31;2071640;28;20364;-66
2023/09/22 11:32:34;;;;;;;1.75;0.75;;;;;;;21.34;56.70;95568.41;2071059;28;20649;-66
2023/09/22 11:33:37;;;;;;;2.03;0.82;;;;;;;21.26;56.09;95565.69;2071505;28;20242;-67
2023/09/22 11:34:47;;;;;;;3.60;0.93;;;;;;;20.59;58.10;95565.53;2073828;28;20225;-66
2023/09/22 11:36:07;;;;;;;3.35;0.90;;;;;;;20.26;57.95;95565.34;2073862;28;20206;-64
2023/09/22 11:37:09;;;;;;;1.90;0.80;;;;;;;19.98;58.49;95576.06;2071990;28;20203;-63
2023/09/22 11:38:27;;;;;;;4.40;1.08;;;;;;;20.29;57.85;95572.97;2072018;28;20209;-65
2023/09/22 11:39:30;;;;;;;5.40;1.00;;;;;;;20.44;56.96;95574.06;2071399;28;20827;-63
2023/09/22 11:40:39;;;;;;;2.70;0.90;;;;;;;20.52;57.32;95592.69;2074016;28;20255;-63
2023/09/22 11:41:41;;;;;;;2.90;0.82;;;;;;;20.90;56.30;95583.63;2072907;28;20635;-63
2023/09/22 11:42:47;;;;;;;3.47;1.00;;;;;;;20.87;56.60;95587.44;2064106;28;20198;-63
2023/09/22 11:43:50;;;;;;;3.47;0.80;;;;;;;21.11;56.69;95580.59;2064661;28;20194;-63
2023/09/22 11:44:58;;;;;;;2.85;0.90;;;;;;;21.73;54.36;95576.81;2072500;28;20198;-63
2023/09/22 11:46:08;;;;;;;2.67;1.05;;;;;;;20.83;55.90;95583.44;2068912;28;20221;-63
2023/09/22 11:47:21;;;;;;;2.58;0.88;;;;;;;20.38;57.30;95578.19;2069955;28;20244;-63
2023/09/22 11:48:23;;;;;;;2.25;0.93;;;;;;;19.85;59.07;95571.16;2069678;28;20245;-64
2023/09/22 11:49:37;;;;;;;3.47;1.10;;;;;;;20.05;59.32;95563.88;2072214;28;20225;-63
2023/09/22 11:50:39;;;;;;;3.17;1.00;;;;;;;19.90;58.17;95566.22;2070602;28;20338;-63
2023/09/22 11:51:54;;;;;;;3.60;0.80;;;;;;;19.40;59.43;95565.72;2072466;28;20225;-63
2023/09/22 11:53:09;;;;;;;2.05;0.80;;;;;;;19.02;58.74;95550.91;2075808;28;20267;-63
2023/09/22 11:54:13;;;;;;;2.08;0.95;;;;;;;18.95;59.43;95553.31;2072179;28;20717;-63
2023/09/22 11:55:19;;;;;;;6.30;1.10;;;;;;;18.75;60.27;95557.81;2072776;28;20930;-63
2023/09/22 11:56:20;;;;;;;8.98;1.00;;;;;;;18.89;61.07;95551.22;2073759;28;20224;-63
2023/09/22 11:57:22;;;;;;;6.57;0.98;;;;;;;19.55;60.53;95557.25;2072772;28;20202;-62
2023/09/22 11:58:23;;;;;;;3.83;1.02;;;;;;;20.13;59.01;95563.09;2073222;28;20193;-63
2023/09/22 11:59:27;;;;;;;2.60;1.00;;;;;;;20.02;58.53;95559.72;2075363;28;20193;-63
2023/09/22 12:00:29;;;;;;;7.43;1.17;;;;;;;20.52;57.75;95570.66;2075211;28;20200;-63
2023/09/22 12:01:31;;;;;;;2.75;0.98;;;;;;;20.45;57.91;95559.00;2074143;28;20221;-63
2023/09/22 12:02:33;;;;;;;8.50;0.90;;;;;;;20.11;57.62;95555.28;2077028;28;20227;-64
2023/09/22 12:03:36;;;;;;;2.60;0.90;;;;;;;20.01;58.25;95546.59;2073031;28;20194;-63
2023/09/22 12:04:38;;;;;;;3.25;1.00;;;;;;;19.42;59.10;95555.00;2071148;28;20193;-63
2023/09/22 12:05:41;;;;;;;4.45;1.35;;;;;;;19.15;59.63;95547.94;2072427;28;20201;-61
2023/09/22 12:06:42;;;;;;;20.40;12.07;;;;;;;19.01;60.42;95539.50;2075866;28;20256;-62
2023/09/22 12:07:44;;;;;;;7.78;3.38;;;;;;;18.75;60.97;95544.59;2074614;28;20202;-62
2023/09/22 12:08:45;;;;;;;2.83;1.10;;;;;;;18.59;61.21;95540.78;2073058;28;20231;-62
2023/09/22 12:09:46;;;;;;;8.32;1.70;;;;;;;18.66;61.39;95537.56;2067599;28;20193;-62
2023/09/22 12:10:48;;;;;;;4.03;1.70;;;;;;;19.03;61.09;95536.72;2065954;28;20368;-62
2023/09/22 12:11:50;;;;;;;3.33;1.00;;;;;;;19.24;61.15;95539.09;2069430;28;20279;-62
2023/09/22 12:12:51;;;;;;;2.55;0.95;;;;;;;19.16;60.32;95536.34;2069046;28;20222;-62
2023/09/22 12:13:53;;;;;;;6.63;1.00;;;;;;;19.16;60.85;95537.19;2070643;28;20209;-63
2023/09/22 12:14:54;;;;;;;7.35;1.17;;;;;;;19.06;59.04;95539.06;2071683;28;20264;-63
2023/09/22 12:15:56;;;;;;;2.78;1.10;;;;;;;18.95;60.53;95534.81;2073254;28;20194;-62
2023/09/22 12:16:57;;;;;;;2.65;1.25;;;;;;;18.87;60.25;95545.28;2071433;28;20703;-62
2023/09/22 12:17:59;;;;;;;3.95;1.23;;;;;;;19.10;59.88;95540.44;2073767;28;20201;-62
2023/09/22 12:19:03;;;;;;;2.90;1.10;;;;;;;19.04;58.87;95543.66;2069255;28;20324;-62
2023/09/22 12:20:06;;;;;;;2.78;0.90;;;;;;;19.61;57.53;95546.06;2075207;28;20248;-62
2023/09/22 12:21:07;;;;;;;2.78;1.10;;;;;;;20.14;56.59;95541.75;2070831;28;20202;-62
2023/09/22 12:22:09;;;;;;;7.22;1.17;;;;;;;20.25;56.77;95550.41;2073231;28;20201;-62
2023/09/22 12:23:11;;;;;;;14.82;2.55;;;;;;;20.97;57.34;95552.84;2072997;28;20315;-62
2023/09/22 12:24:13;;;;;;;4.75;0.95;;;;;;;20.55;56.26;95541.16;2073124;28;20200;-62
2023/09/22 12:25:14;;;;;;;2.25;1.00;;;;;;;20.46;56.96;95552.72;2073896;28;20714;-62
2023/09/22 12:26:16;;;;;;;2.80;0.98;;;;;;;19.76;58.09;95559.63;2072961;28;20566;-62
2023/09/22 12:27:18;;;;;;;7.07;1.10;;;;;;;18.97;60.58;95559.31;2071402;28;20675;-62
2023/09/22 12:28:19;;;;;;;3.05;0.98;;;;;;;19.01;60.76;95559.84;2072227;28;20197;-62
2023/09/22 12:29:21;;;;;;;2.45;1.05;;;;;;;19.56;59.44;95556.28;2071569;28;20198;-62
2023/09/22 12:30:22;;;;;;;2.20;0.80;;;;;;;19.18;59.68;95548.44;2072002;28;20204;-62
2023/09/22 12:31:24;;;;;;;3.03;1.00;;;;;;;19.46;58.78;95548.41;2072250;28;20729;-62
2023/09/22 12:32:26;;;;;;;4.47;1.00;;;;;;;20.36;58.45;95548.34;2073293;28;20199;-62
2023/09/22 12:33:28;;;;;;;2.38;0.85;;;;;;;20.18;57.36;95550.22;2076276;28;20563;-62
2023/09/22 12:34:33;;;;;;;5.45;1.20;;;;;;;19.64;57.50;95547.59;2072153;28;20206;-62
2023/09/22 12:35:34;;;;;;;2.40;1.10;;;;;;;19.40;57.38;95552.50;2073704;28;20708;-63
2023/09/22 12:36:36;;;;;;;5.60;2.47;;;;;;;19.12;58.51;95546.38;2069089;28;20224;-65
2023/09/22 12:37:37;;;;;;;2.13;0.80;;;;;;;18.71;58.32;95543.25;2069056;28;20198;-65
2023/09/22 12:38:39;;;;;;;2.85;1.52;;;;;;;18.71;59.28;95549.34;2068502;28;20607;-65
2023/09/22 12:39:41;;;;;;;1.90;0.90;;;;;;;18.87;59.21;95551.38;2069053;28;20193;-64
2023/09/22 12:40:43;;;;;;;2.35;0.90;;;;;;;18.90;57.73;95545.00;2071099;28;20243;-65
2023/09/22 12:41:44;;;;;;;2.90;1.00;;;;;;;18.90;57.71;95537.88;2071079;28;20214;-64
2023/09/22 12:42:46;;;;;;;3.38;1.38;;;;;;;19.14;57.31;95544.44;2072380;28;20229;-64
2023/09/22 12:43:47;;;;;;;2.85;0.93;;;;;;;19.32;56.24;95539.16;2071721;28;20202;-64
2023/09/22 12:44:50;;;;;;;3.88;1.23;;;;;;;19.39;56.92;95534.94;2071727;28;20639;-64
2023/09/22 12:45:54;;;;;;;2.55;1.00;;;;;;;19.53;55.49;95553.94;2073881;28;20289;-65
2023/09/22 12:46:56;;;;;;;3.95;1.10;;;;;;;19.65;55.79;95546.59;2075864;28;20365;-65
2023/09/22 12:47:58;;;;;;;2.92;1.00;;;;;;;20.01;55.24;95544.78;2073253;28;20272;-64
2023/09/22 12:49:00;;;;;;;3.65;1.00;;;;;;;20.47;54.32;95549.91;2074696;28;20274;-64
2023/09/22 12:50:05;;;;;;;2.67;0.90;;;;;;;19.92;55.22;95536.94;2074405;28;20590;-65
2023/09/22 12:51:07;;;;;;;3.35;1.00;;;;;;;19.29;56.38;95547.41;2071081;28;20611;-65
2023/09/22 12:52:09;;;;;;;5.75;1.25;;;;;;;19.31;57.22;95536.69;2071700;28;20555;-64
2023/09/22 12:53:10;;;;;;;3.65;1.05;;;;;;;19.86;56.11;95533.09;2070772;28;20697;-64
2023/09/22 12:54:12;;;;;;;2.92;1.02;;;;;;;20.00;55.43;95535.19;2074605;28;20289;-64
2023/09/22 12:55:13;;;;;;;3.72;1.20;;;;;;;19.51;56.21;95529.44;2075633;28;20209;-64
2023/09/22 12:56:15;;;;;;;3.60;0.90;;;;;;;19.03;56.85;95526.13;2073425;28;20558;-65
2023/09/22 12:57:16;;;;;;;3.95;1.08;;;;;;;18.92;57.67;95538.56;2071090;28;20202;-65
2023/09/22 12:58:18;;;;;;;5.10;0.80;;;;;;;19.04;58.18;95523.31;2070805;28;20198;-65
2023/09/22 12:59:19;;;;;;;5.68;1.10;;;;;;;18.90;58.91;95531.78;2071944;28;20297;-64
2023/09/22 13:00:21;;;;;;;2.33;0.93;;;;;;;19.05;58.97;95530.28;2072932;28;20197;-64
2023/09/22 13:01:24;;;;;;;3.17;0.90;;;;;;;19.14;58.60;95527.75;2071932;28;20232;-64
2023/09/22 13:02:26;;;;;;;2.38;0.90;;;;;;;19.50;57.66;95536.56;2071241;28;20523;-65
2023/09/22 13:03:28;;;;;;;2.90;1.20;;;;;;;19.72;57.43;95518.53;2074343;28;20254;-65
2023/09/22 13:04:33;;;;;;;5.45;1.05;;;;;;;19.12;58.32;95524.41;2076775;28;20221;-64
2023/09/22 13:05:34;;;;;;;11.07;1.08;;;;;;;19.07;57.67;95514.25;2077330;28;20204;-64
2023/09/22 13:06:39;;;;;;;4.00;1.25;;;;;;;19.49;56.81;95521.66;2073377;28;20240;-64
2023/09/22 13:07:41;;;;;;;4.13;0.98;;;;;;;19.15;56.99;95532.06;2076051;28;20239;-64
2023/09/22 13:08:43;;;;;;;2.67;0.90;;;;;;;19.05;56.64;95532.94;2074289;28;20284;-64
2023/09/22 13:09:46;;;;;;;3.42;0.90;;;;;;;18.96;56.69;95525.91;2070562;28;20253;-64
2023/09/22 13:10:48;;;;;;;6.85;1.27;;;;;;;19.29;56.89;95523.59;2071646;28;20197;-64
2023/09/22 13:11:51;;;;;;;2.70;1.10;;;;;;;20.17;55.18;95525.50;2071182;28;20301;-64
2023/09/22 13:12:53;;;;;;;2.25;1.00;;;;;;;20.94;54.23;95523.94;2071127;28;20202;-64
2023/09/22 13:13:54;;;;;;;2.35;0.90;;;;;;;21.03;53.58;95517.69;2075536;28;20197;-64
2023/09/22 13:14:56;;;;;;;3.60;0.90;;;;;;;20.68;54.30;95523.00;2073947;28;20287;-65
2023/09/22 13:15:57;;;;;;;5.32;0.90;;;;;;;20.91;54.70;95519.78;2071523;28;20190;-65
2023/09/22 13:16:59;;;;;;;4.22;0.82;;;;;;;21.04;54.25;95522.84;2071296;28;20199;-65
2023/09/22 13:18:02;;;;;;;2.80;1.00;;;;;;;20.73;54.15;95527.03;2073486;28;20212;-65
2023/09/22 13:19:04;;;;;;;4.75;1.23;;;;;;;20.99;54.21;95525.16;2072626;28;20266;-64
2023/09/22 13:20:06;;;;;;;3.08;0.93;;;;;;;21.41;53.69;95522.59;2070893;28;20206;-64
2023/09/22 13:21:14;;;;;;;5.15;0.95;;;;;;;21.37;54.39;95522.09;2072914;28;20568;-65
2023/09/22 13:22:17;;;;;;;2.42;0.90;;;;;;;21.29;53.69;95512.31;2069452;28;20210;-65
2023/09/22 13:23:19;;;;;;;4.78;2.45;;;;;;;21.17;55.07;95522.38;2067086;28;20225;-64
2023/09/22 13:24:21;;;;;;;3.35;1.13;;;;;;;21.23;53.14;95518.25;2073712;28;20198;-62
2023/09/22 13:25:22;;;;;;;5.97;1.67;;;;;;;20.70;54.84;95513.09;2075738;28;20208;-61
2023/09/22 13:26:24;;;;;;;5.45;2.47;;;;;;;20.29;55.66;95509.34;2073721;28;20225;-62
2023/09/22 13:27:25;;;;;;;4.70;1.25;;;;;;;20.32;55.33;95509.88;2071075;28;20197;-63
2023/09/22 13:28:27;;;;;;;5.45;1.00;;;;;;;20.33;54.31;95508.06;2076361;28;20197;-63
2023/09/22 13:29:29;;;;;;;3.50;1.05;;;;;;;20.49;54.25;95517.94;2076255;28;20220;-62
2023/09/22 13:30:31;;;;;;;2.42;0.90;;;;;;;20.05;53.78;95509.06;2073189;28;20556;-62
2023/09/22 13:31:32;;;;;;;4.45;0.90;;;;;;;20.05;54.90;95516.19;2071677;28;20228;-63
2023/09/22 13:32:34;;;;;;;2.55;1.08;;;;;;;20.29;54.32;95514.66;2070713;28;20226;-62
2023/09/22 13:33:36;;;;;;;1.90;0.85;;;;;;;20.35;54.25;95509.59;2075292;28;20201;-63
2023/09/22 13:34:38;;;;;;;3.15;0.95;;;;;;;20.63;54.47;95516.50;2073443;28;20286;-63
2023/09/22 13:35:39;;;;;;;2.03;1.00;;;;;;;20.15;54.49;95508.97;2075328;28;20217;-63
2023/09/22 13:36:41;;;;;;;7.80;1.10;;;;;;;19.70;54.76;95504.63;2075954;28;20700;-63
2023/09/22 13:37:42;;;;;;;5.18;1.10;;;;;;;19.99;55.01;95522.09;2074580;28;20254;-63
2023/09/22 13:38:44;;;;;;;4.50;1.15;;;;;;;20.16;53.46;95507.13;2069623;28;20194;-62
2023/09/22 13:39:46;;;;;;;2.45;0.80;;;;;;;19.85;54.15;95504.94;2075018;28;20637;-62
2023/09/22 13:40:50;;;;;;;5.00;1.00;;;;;;;20.00;53.97;95505.22;2077421;28;20197;-62
2023/09/22 13:41:51;;;;;;;4.55;1.30;;;;;;;20.04;54.03;95517.16;2070476;28;20222;-62
2023/09/22 13:42:53;;;;;;;1.77;0.70;;;;;;;19.65;55.19;95504.25;2072353;28;20244;-62
2023/09/22 13:43:54;;;;;;;4.32;0.88;;;;;;;20.12;54.24;95495.19;2073365;28;20202;-62
2023/09/22 13:44:56;;;;;;;2.53;1.10;;;;;;;19.98;54.74;95500.06;2071959;28;20290;-63
2023/09/22 13:45:57;;;;;;;2.97;0.90;;;;;;;20.30;53.88;95498.63;2073262;28;20202;-62
2023/09/22 13:47:00;;;;;;;2.95;0.82;;;;;;;20.45;53.37;95501.50;2073250;28;20190;-63
2023/09/22 13:48:06;;;;;;;7.10;1.23;;;;;;;20.66;52.74;95509.06;2072944;28;20201;-69
2023/09/22 13:49:08;;;;;;;3.42;1.10;;;;;;;20.59;53.56;95501.91;2071609;28;20230;-69
2023/09/22 13:50:09;;;;;;;3.60;1.20;;;;;;;19.96;54.57;95501.19;2070386;28;20561;-69
2023/09/22 13:51:11;;;;;;;3.25;0.90;;;;;;;20.01;55.43;95509.50;2070569;28;20694;-68
2023/09/22 13:52:13;;;;;;;4.88;1.30;;;;;;;20.35;53.85;95506.09;2073360;28;20252;-69
2023/09/22 13:53:14;;;;;;;5.55;1.20;;;;;;;20.81;52.65;95503.19;2076192;28;20802;-69
2023/09/22 13:54:16;;;;;;;3.20;0.90;;;;;;;20.68;52.96;95495.63;2072556;28;20194;-69
2023/09/22 13:55:18;;;;;;;1.65;0.70;;;;;;;20.84;52.06;95500.22;2073419;28;20581;-70
2023/09/22 13:56:20;;;;;;;2.60;1.00;;;;;;;20.31;53.43;95491.50;2072743;28;20225;-68
2023/09/22 13:57:21;;;;;;;4.65;1.05;;;;;;;20.20;53.37;95496.06;2071327;28;20894;-68
2023/09/22 13:58:23;;;;;;;2.60;0.90;;;;;;;20.69;52.41;95507.91;2070320;28;20251;-70
2023/09/22 13:59:24;;;;;;;3.53;1.00;;;;;;;20.53;52.17;95498.06;2071832;28;20205;-69
2023/09/22 14:00:27;;;;;;;2.63;0.98;;;;;;;20.31;52.58;95499.44;2069505;28;20210;-69
2023/09/22 14:01:29;;;;;;;2.55;0.90;;;;;;;20.48;52.39;95509.16;2067749;28;20785;-69
2023/09/22 14:02:32;;;;;;;2.60;0.80;;;;;;;20.80;52.14;95512.97;2069932;28;20285;-69
2023/09/22 14:03:34;;;;;;;3.58;0.93;;;;;;;20.75;52.61;95509.97;2067525;28;20206;-69
2023/09/22 14:04:36;;;;;;;8.50;0.95;;;;;;;21.10;51.70;95504.59;2069447;28;20198;-69
2023/09/22 14:05:38;;;;;;;3.35;1.00;;;;;;;20.80;51.60;95509.50;2067351;28;20588;-69
2023/09/22 14:06:40;;;;;;;6.30;1.35;;;;;;;21.35;51.73;95501.00;2063316;28;20674;-71
2023/09/22 14:07:41;;;;;;;4.50;1.17;;;;;;;21.47;51.25;95500.69;2063847;28;20285;-69
2023/09/22 14:08:45;;;;;;;6.68;1.42;;;;;;;21.21;51.21;95499.81;2070840;28;20254;-70
2023/09/22 14:09:46;;;;;;;3.28;1.08;;;;;;;21.26;51.29;95501.19;2076704;28;20201;-68
2023/09/22 14:10:48;;;;;;;2.00;0.90;;;;;;;21.27;51.12;95492.19;2074825;28;20228;-69
2023/09/22 14:11:50;;;;;;;4.25;1.13;;;;;;;20.84;52.23;95498.38;2072969;28;20262;-69
2023/09/22 14:12:51;;;;;;;8.13;1.00;;;;;;;20.24;53.44;95491.28;2071644;28;20196;-69
2023/09/22 14:13:53;;;;;;;4.05;0.80;;;;;;;20.13;53.34;95502.97;2071131;28;20213;-69
2023/09/22 14:14:55;;;;;;;3.03;0.90;;;;;;;20.42;53.00;95493.88;2069898;28;20219;-69
2023/09/22 14:15:57;;;;;;;3.35;1.10;;;;;;;20.26;53.05;95512.34;2069769;28;20218;-69
2023/09/22 14:16:59;;;;;;;6.25;1.08;;;;;;;19.62;54.03;95502.72;2073073;28;20213;-69
2023/09/22 14:18:02;;;;;;;5.20;1.40;;;;;;;19.40;55.04;95506.66;2073587;28;20300;-68
2023/09/22 14:19:04;;;;;;;3.85;1.35;;;;;;;19.80;53.81;95507.19;2073825;28;20211;-69
2023/09/22 14:20:07;;;;;;;5.15;1.30;;;;;;;20.28;53.36;95502.38;2072769;28;20364;-69
2023/09/22 14:21:08;;;;;;;2.28;1.13;;;;;;;20.68;52.61;95496.50;2073659;28;20197;-68
2023/09/22 14:22:10;;;;;;;4.97;1.17;;;;;;;20.46;53.03;95499.69;2072135;28;20822;-69
2023/09/22 14:23:11;;;;;;;5.28;1.25;;;;;;;20.15;53.42;95506.31;2073941;28;20206;-69
2023/09/22 14:24:13;;;;;;;1.92;0.80;;;;;;;19.94;53.89;95500.53;2070645;28;20205;-69
2023/09/22 14:25:14;;;;;;;4.97;1.00;;;;;;;20.72;52.87;95502.31;2071177;28;20223;-70
2023/09/22 14:26:16;;;;;;;2.03;0.80;;;;;;;20.69;51.94;95505.25;2068781;28;20628;-69
2023/09/22 14:27:18;;;;;;;3.50;1.02;;;;;;;20.42;52.61;95506.28;2074788;28;20204;-69
2023/09/22 14:28:19;;;;;;;4.57;1.00;;;;;;;20.34;51.74;95497.31;2073839;28;20281;-69
2023/09/22 14:29:21;;;;;;;4.03;1.40;;;;;;;20.74;52.46;95502.19;2074657;28;20244;-69
2023/09/22 14:30:23;;;;;;;2.90;1.08;;;;;;;20.80;50.91;95499.72;2073640;28;20252;-68
2023/09/22 14:31:24;;;;;;;4.07;1.58;;;;;;;20.92;51.26;95496.75;2071390;28;20225;-69
2023/09/22 14:32:26;;;;;;;2.17;0.93;;;;;;;21.20;51.34;95492.03;2072238;28;20660;-69
2023/09/22 14:33:28;;;;;;;2.00;1.00;;;;;;;21.21;50.98;95496.34;2072241;28;20228;-69
2023/09/22 14:34:30;;;;;;;7.93;0.93;;;;;;;20.77;50.95;95489.41;2077094;28;20209;-69
2023/09/22 14:35:32;;;;;;;3.08;1.02;;;;;;;20.66;50.94;95498.47;2073361;28;20197;-69
2023/09/22 14:36:34;;;;;;;3.13;1.08;;;;;;;20.39;50.89;95488.88;2073658;28;20221;-68
2023/09/22 14:37:35;;;;;;;6.63;1.00;;;;;;;20.84;50.36;95494.91;2074521;28;20635;-68
2023/09/22 14:38:37;;;;;;;3.92;0.90;;;;;;;20.72;50.69;95494.34;2073857;28;20205;-68
2023/09/22 14:39:38;;;;;;;8.68;1.00;;;;;;;20.67;50.47;95493.97;2074275;28;20220;-67
2023/09/22 14:40:41;;;;;;;3.60;0.93;;;;;;;20.95;50.11;95491.97;2075855;28;20202;-68
2023/09/22 14:41:42;;;;;;;3.78;1.10;;;;;;;21.21;50.39;95494.50;2071621;28;20584;-68